createdAt,value
2022-11-16T00:02:12.230Z,24.70
2022-11-16T00:04:41.971Z,24.70
2022-11-16T00:07:10.396Z,24.70
2022-11-16T00:09:40.311Z,24.70
2022-11-16T00:12:13.309Z,24.70
2022-11-16T00:14:41.385Z,24.60
2022-11-16T00:17:09.567Z,24.60
2022-11-16T00:19:37.809Z,24.80
2022-11-16T00:22:07.230Z,24.80
2022-11-16T00:24:35.436Z,24.80
2022-11-16T00:27:03.553Z,24.70
2022-11-16T00:29:31.609Z,24.50
2022-11-16T00:31:59.739Z,24.20
2022-11-16T00:34:28.788Z,24.40
2022-11-16T00:36:57.311Z,24.60
2022-11-16T00:39:26.704Z,24.60
2022-11-16T00:41:54.789Z,24.50
2022-11-16T00:44:22.883Z,24.50
2022-11-16T00:46:51.073Z,24.50
2022-11-16T00:49:19.125Z,24.50
2022-11-16T00:51:47.220Z,24.50
2022-11-16T00:54:15.348Z,24.50
2022-11-16T00:56:47.201Z,24.70
2022-11-16T00:59:15.783Z,24.70
2022-11-16T01:01:44.071Z,24.90
2022-11-16T01:04:12.450Z,25.00
2022-11-16T01:06:40.469Z,25.00
2022-11-16T01:09:10.828Z,25.10
2022-11-16T01:11:56.505Z,25.10
2022-11-16T01:14:25.871Z,25.10
2022-11-16T01:16:54.005Z,25.20
2022-11-16T01:19:22.059Z,25.30
2022-11-16T01:21:50.276Z,25.10
2022-11-16T01:24:18.328Z,25.20
2022-11-16T01:26:46.476Z,25.20
2022-11-16T01:29:14.829Z,25.20
2022-11-16T01:31:49.531Z,25.30
2022-11-16T01:34:18.020Z,25.30
2022-11-16T01:36:46.582Z,25.30
2022-11-16T01:39:15.826Z,25.30
2022-11-16T01:41:57.153Z,25.30
2022-11-16T01:44:56.158Z,25.30
2022-11-16T01:47:25.612Z,25.30
2022-11-16T01:49:59.258Z,25.30
2022-11-16T01:52:36.022Z,25.30
2022-11-16T01:55:06.159Z,25.30
2022-11-16T01:57:48.247Z,25.20
2022-11-16T02:00:18.752Z,25.20
2022-11-16T02:03:00.096Z,25.20
2022-11-16T02:06:06.399Z,25.30
2022-11-16T02:09:06.638Z,25.30
2022-11-16T02:12:00.107Z,25.30
2022-11-16T02:14:43.113Z,25.20
2022-11-16T02:17:25.240Z,25.10
2022-11-16T02:20:30.756Z,25.10
2022-11-16T02:23:17.638Z,25.10
2022-11-16T02:25:54.713Z,25.20
2022-11-16T02:28:35.350Z,25.20
2022-11-16T02:31:08.276Z,25.20
2022-11-16T02:33:39.624Z,25.20
2022-11-16T02:36:11.580Z,25.30
2022-11-16T02:38:44.014Z,25.30
2022-11-16T02:41:15.558Z,25.10
2022-11-16T02:43:45.940Z,24.80
2022-11-16T02:46:21.041Z,24.90
2022-11-16T02:48:52.334Z,25.00
2022-11-16T02:51:21.947Z,25.10
2022-11-16T02:54:02.106Z,25.10
2022-11-16T02:56:31.283Z,25.10
2022-11-16T02:59:00.483Z,25.00
2022-11-16T03:01:39.273Z,25.10
2022-11-16T03:04:13.454Z,25.10
2022-11-16T03:06:44.586Z,25.20
2022-11-16T03:09:17.000Z,25.20
2022-11-16T03:11:59.785Z,25.30
2022-11-16T03:14:35.271Z,25.30
2022-11-16T03:17:10.713Z,25.30
2022-11-16T03:19:45.043Z,25.20
2022-11-16T03:22:16.348Z,25.10
2022-11-16T03:24:44.994Z,24.90
2022-11-16T03:27:20.879Z,25.00
2022-11-16T03:30:00.107Z,25.00
2022-11-16T03:32:35.492Z,25.00
2022-11-16T03:35:15.353Z,25.10
2022-11-16T03:37:45.435Z,24.80
2022-11-16T03:40:15.794Z,24.50
2022-11-16T03:42:44.767Z,24.10
2022-11-16T03:45:14.447Z,24.20
2022-11-16T03:47:44.554Z,23.80
2022-11-16T03:50:12.600Z,23.70
2022-11-16T03:52:41.707Z,24.10
2022-11-16T03:55:10.439Z,24.20
2022-11-16T03:57:38.482Z,24.40
2022-11-16T04:00:08.109Z,24.50
2022-11-16T04:02:44.497Z,24.70
2022-11-16T04:05:36.433Z,24.60
2022-11-16T04:08:22.583Z,24.50
2022-11-16T04:11:08.112Z,24.40
2022-11-16T04:13:54.402Z,24.50
2022-11-16T04:16:41.152Z,24.60
2022-11-16T04:19:29.039Z,24.60
2022-11-16T04:22:17.545Z,24.50
2022-11-16T04:24:49.864Z,24.00
2022-11-16T04:27:35.815Z,23.30
2022-11-16T04:30:05.504Z,22.40
2022-11-16T04:32:52.903Z,21.90
2022-11-16T04:35:41.888Z,21.50
2022-11-16T04:38:11.118Z,22.10
2022-11-16T04:40:39.699Z,22.30
2022-11-16T04:43:07.333Z,22.50
2022-11-16T04:45:56.820Z,23.00
2022-11-16T04:48:29.757Z,23.50
2022-11-16T04:51:01.400Z,23.90
2022-11-16T04:53:29.455Z,24.10
2022-11-16T04:56:06.019Z,24.40
2022-11-16T04:58:34.939Z,24.50
2022-11-16T05:01:03.766Z,24.60
2022-11-16T05:03:32.050Z,24.50
2022-11-16T05:06:01.319Z,24.60
2022-11-16T05:08:29.999Z,24.60
2022-11-16T05:10:59.333Z,24.70
2022-11-16T05:13:27.861Z,24.90
2022-11-16T05:15:55.968Z,25.00
2022-11-16T05:18:24.548Z,25.10
2022-11-16T05:21:00.708Z,25.20
2022-11-16T05:23:50.479Z,25.30
2022-11-16T05:26:21.654Z,25.30
2022-11-16T05:28:50.266Z,25.30
2022-11-16T05:31:18.250Z,25.40
2022-11-16T05:33:46.317Z,25.40
2022-11-16T05:36:19.398Z,25.40
2022-11-16T05:38:51.615Z,25.40
2022-11-16T05:41:24.761Z,25.40
2022-11-16T05:43:55.174Z,25.40
2022-11-16T05:46:23.956Z,25.40
2022-11-16T05:48:52.410Z,25.40
2022-11-16T05:51:20.489Z,25.40
2022-11-16T05:53:50.349Z,25.40
2022-11-16T05:56:22.589Z,25.40
2022-11-16T05:58:51.297Z,25.40
2022-11-16T06:01:19.284Z,25.40
2022-11-16T06:03:49.887Z,25.40
2022-11-16T06:06:19.903Z,25.50
2022-11-16T06:08:50.437Z,25.50
2022-11-16T06:11:25.052Z,25.50
2022-11-16T06:13:53.223Z,25.40
2022-11-16T06:16:21.525Z,25.50
2022-11-16T06:18:49.661Z,25.50
2022-11-16T06:21:20.782Z,25.50
2022-11-16T06:23:50.773Z,25.40
2022-11-16T06:26:19.237Z,25.50
2022-11-16T06:28:48.147Z,25.50
2022-11-16T06:31:16.211Z,25.40
2022-11-16T06:33:45.600Z,25.30
2022-11-16T06:36:22.415Z,25.30
2022-11-16T06:38:52.477Z,25.30
2022-11-16T06:41:23.578Z,25.40
2022-11-16T06:43:52.483Z,25.40
2022-11-16T06:46:25.515Z,25.40
2022-11-16T06:48:56.716Z,25.40
2022-11-16T06:51:25.305Z,25.40
2022-11-16T06:53:55.377Z,25.40
2022-11-16T06:56:23.978Z,25.40
2022-11-16T06:58:57.265Z,25.50
2022-11-16T07:01:27.148Z,25.50
2022-11-16T07:04:00.747Z,25.50
2022-11-16T07:06:28.745Z,25.50
2022-11-16T07:08:59.050Z,25.50
2022-11-16T07:11:31.194Z,25.50
2022-11-16T07:13:59.893Z,25.40
2022-11-16T07:16:29.039Z,25.40
2022-11-16T07:19:02.242Z,25.40
2022-11-16T07:21:33.066Z,25.30
2022-11-16T07:24:05.521Z,25.20
2022-11-16T07:26:33.825Z,25.20
2022-11-16T07:29:15.618Z,25.20
2022-11-16T07:31:59.707Z,25.20
2022-11-16T07:34:53.405Z,25.30
2022-11-16T07:37:22.126Z,25.20
2022-11-16T07:39:51.432Z,25.20
2022-11-16T07:42:19.375Z,25.20
2022-11-16T07:45:07.162Z,25.10
2022-11-16T07:47:39.854Z,24.90
2022-11-16T07:50:11.895Z,25.00
2022-11-16T07:52:39.884Z,25.10
2022-11-16T07:55:12.913Z,25.20
2022-11-16T07:57:42.006Z,25.20
2022-11-16T08:00:11.043Z,25.30
2022-11-16T08:02:41.679Z,25.30
2022-11-16T08:05:16.531Z,25.40
2022-11-16T08:07:44.666Z,25.40
2022-11-16T08:10:14.605Z,25.40
2022-11-16T08:12:42.615Z,25.40
2022-11-16T08:15:14.038Z,25.40
2022-11-16T08:17:42.499Z,25.30
2022-11-16T08:20:13.255Z,25.20
2022-11-16T08:22:42.020Z,25.00
2022-11-16T08:25:10.718Z,25.00
2022-11-16T08:27:41.889Z,24.90
2022-11-16T08:30:11.609Z,24.90
2022-11-16T08:32:42.108Z,24.80
2022-11-16T08:35:11.602Z,24.60
2022-11-16T08:37:39.800Z,24.40
2022-11-16T08:40:09.781Z,24.50
2022-11-16T08:42:43.821Z,24.40
2022-11-16T08:45:13.146Z,24.30
2022-11-16T08:47:42.293Z,24.40
2022-11-16T08:50:10.679Z,24.20
2022-11-16T08:52:39.232Z,24.20
2022-11-16T08:55:07.712Z,24.20
2022-11-16T08:57:35.719Z,24.20
2022-11-16T09:00:11.188Z,24.40
2022-11-16T09:02:39.569Z,24.40
2022-11-16T09:05:11.740Z,24.30
2022-11-16T09:07:40.620Z,24.10
2022-11-16T09:10:09.729Z,23.90
2022-11-16T09:12:38.213Z,23.50
2022-11-16T09:15:07.281Z,23.20
2022-11-16T09:17:39.711Z,23.30
2022-11-16T09:20:08.965Z,23.40
2022-11-16T09:22:37.085Z,23.50
2022-11-16T09:25:05.667Z,23.50
2022-11-16T09:27:33.597Z,23.60
2022-11-16T09:30:01.521Z,23.60
2022-11-16T09:32:29.496Z,23.70
2022-11-16T09:34:58.786Z,23.60
2022-11-16T09:37:26.763Z,23.60
2022-11-16T09:39:54.982Z,23.50
2022-11-16T09:42:34.177Z,23.20
2022-11-16T09:45:06.293Z,23.10
2022-11-16T09:47:42.988Z,23.20
2022-11-16T09:50:32.272Z,23.20
2022-11-16T09:53:10.749Z,23.30
2022-11-16T09:55:46.510Z,23.40
2022-11-16T09:58:17.804Z,23.50
2022-11-16T10:00:54.628Z,23.60
2022-11-16T10:03:22.923Z,23.70
2022-11-16T10:06:00.170Z,23.80
2022-11-16T10:08:40.980Z,23.80
2022-11-16T10:11:30.851Z,23.90
2022-11-16T10:14:09.267Z,23.90
2022-11-16T10:16:44.764Z,23.90
2022-11-16T10:19:18.619Z,23.90
2022-11-16T10:21:57.400Z,23.80
2022-11-16T10:24:41.652Z,23.90
2022-11-16T10:27:25.421Z,24.00
2022-11-16T10:30:03.147Z,23.90
2022-11-16T10:32:34.575Z,23.70
2022-11-16T10:35:09.144Z,23.70
2022-11-16T10:37:42.194Z,23.40
2022-11-16T10:40:25.922Z,23.40
2022-11-16T10:43:02.026Z,23.40
2022-11-16T10:45:36.147Z,23.10
2022-11-16T10:48:20.599Z,23.30
2022-11-16T10:50:51.062Z,23.10
2022-11-16T10:53:29.116Z,23.30
2022-11-16T10:56:17.353Z,23.50
2022-11-16T10:58:53.267Z,23.70
2022-11-16T11:01:33.907Z,23.80
2022-11-16T11:04:15.591Z,23.90
2022-11-16T11:06:44.272Z,23.90
2022-11-16T11:09:23.170Z,23.90
2022-11-16T11:12:27.296Z,24.00
2022-11-16T11:15:00.857Z,24.00
2022-11-16T11:17:29.812Z,23.90
2022-11-16T11:20:03.348Z,23.90
2022-11-16T11:22:32.972Z,23.90
2022-11-16T11:25:04.245Z,23.90
2022-11-16T11:27:34.981Z,23.90
2022-11-16T11:30:03.841Z,24.00
2022-11-16T11:32:40.332Z,24.00
2022-11-16T11:35:23.992Z,24.00
2022-11-16T11:37:55.898Z,24.00
2022-11-16T11:40:26.902Z,24.10
2022-11-16T11:43:00.536Z,24.10
2022-11-16T11:45:36.616Z,23.90
2022-11-16T11:48:22.258Z,23.90
2022-11-16T11:50:53.913Z,23.90
2022-11-16T11:53:38.563Z,24.00
2022-11-16T11:56:11.324Z,24.00
2022-11-16T11:58:41.764Z,23.90
2022-11-16T12:01:42.403Z,23.90
2022-11-16T12:05:04.412Z,23.80
2022-11-16T12:07:50.480Z,23.90
2022-11-16T12:10:27.676Z,23.80
2022-11-16T12:13:12.009Z,23.80
2022-11-16T12:16:02.906Z,23.90
2022-11-16T12:18:52.238Z,23.90
2022-11-16T12:21:28.494Z,23.80
2022-11-16T12:24:10.993Z,23.80
2022-11-16T12:26:46.727Z,23.90
2022-11-16T12:29:26.664Z,23.80
2022-11-16T12:32:10.312Z,23.80
2022-11-16T12:34:52.279Z,23.70
2022-11-16T12:37:27.132Z,23.60
2022-11-16T12:40:09.370Z,23.50
2022-11-16T12:42:46.322Z,23.40
2022-11-16T12:45:28.999Z,23.40
2022-11-16T12:48:23.606Z,23.30
2022-11-16T12:50:57.350Z,23.20
2022-11-16T12:53:48.255Z,22.90
2022-11-16T12:56:24.763Z,22.50
2022-11-16T12:59:05.398Z,22.50
2022-11-16T13:01:38.851Z,22.40
2022-11-16T13:04:11.538Z,22.40
2022-11-16T13:06:45.226Z,22.50
2022-11-16T13:09:17.279Z,22.70
2022-11-16T13:11:48.906Z,22.80
2022-11-16T13:14:19.839Z,22.60
2022-11-16T13:16:50.176Z,22.40
2022-11-16T13:19:19.187Z,22.10
2022-11-16T13:21:53.764Z,22.20
2022-11-16T13:24:31.327Z,22.30
2022-11-16T13:27:13.206Z,22.10
2022-11-16T13:29:47.123Z,21.90
2022-11-16T13:32:23.103Z,21.70
2022-11-16T13:34:52.230Z,21.60
2022-11-16T13:37:42.446Z,21.30
2022-11-16T13:40:20.596Z,21.60
2022-11-16T13:43:18.995Z,21.80
2022-11-16T13:45:58.448Z,22.00
2022-11-16T13:48:32.893Z,22.00
2022-11-16T13:51:03.844Z,21.90
2022-11-16T13:56:28.554Z,21.40
2022-11-16T13:58:58.229Z,21.50
2022-11-16T14:01:26.522Z,21.40
2022-11-16T14:04:36.921Z,21.40
2022-11-16T14:07:06.240Z,21.20
2022-11-16T14:09:54.926Z,20.90
2022-11-16T14:12:56.002Z,20.70
2022-11-16T14:15:35.076Z,20.20
2022-11-16T14:18:23.802Z,20.40
2022-11-16T14:20:57.024Z,20.00
2022-11-16T14:23:36.611Z,20.40
2022-11-16T14:26:13.791Z,20.70
2022-11-16T14:29:05.662Z,20.90
2022-11-16T14:31:48.822Z,21.20
2022-11-16T14:34:19.142Z,21.40
2022-11-16T14:36:48.819Z,21.30
2022-11-16T14:39:27.312Z,21.40
2022-11-16T14:41:57.851Z,21.40
2022-11-16T14:44:30.188Z,21.20
2022-11-16T14:46:58.666Z,21.10
2022-11-16T14:49:28.649Z,20.60
2022-11-16T14:51:59.849Z,20.70
2022-11-16T14:54:36.112Z,20.80
2022-11-16T14:57:05.669Z,20.50
2022-11-16T14:59:33.847Z,20.10
2022-11-16T15:02:13.628Z,20.00
2022-11-16T15:04:41.630Z,20.30
2022-11-16T15:07:09.793Z,20.50
2022-11-16T15:09:41.675Z,20.70
2022-11-16T15:12:34.612Z,20.50
2022-11-16T15:15:06.994Z,20.40
2022-11-16T15:17:35.624Z,20.10
2022-11-16T15:20:15.521Z,20.30
2022-11-16T15:22:45.351Z,20.30
2022-11-16T15:25:28.037Z,20.60
2022-11-16T15:27:57.414Z,20.60
2022-11-16T15:30:27.775Z,20.50
2022-11-16T15:32:55.991Z,20.70
2022-11-16T15:35:25.735Z,20.50
2022-11-16T15:38:05.214Z,20.20
2022-11-16T15:40:36.892Z,20.20
2022-11-16T15:43:06.510Z,19.80
2022-11-16T15:45:35.130Z,20.10
2022-11-16T15:48:04.862Z,20.30
2022-11-16T15:50:33.202Z,20.30
2022-11-16T15:53:01.150Z,20.10
2022-11-16T15:55:37.609Z,20.20
2022-11-16T15:58:12.919Z,20.20
2022-11-16T16:00:41.865Z,20.40
2022-11-16T16:03:21.135Z,20.20
2022-11-16T16:05:49.765Z,19.80
2022-11-16T16:08:27.208Z,19.30
2022-11-16T16:11:05.405Z,19.30
2022-11-16T16:13:36.014Z,19.00
2022-11-16T16:16:30.466Z,19.10
2022-11-16T16:19:06.480Z,19.30
2022-11-16T16:21:44.430Z,19.40
2022-11-16T16:24:36.682Z,19.20
2022-11-16T16:27:11.665Z,18.80
2022-11-16T16:29:39.645Z,18.80
2022-11-16T16:32:10.110Z,18.60
2022-11-16T16:34:42.144Z,18.90
2022-11-16T16:37:12.875Z,19.00
2022-11-16T16:39:42.008Z,18.60
2022-11-16T16:42:13.809Z,18.20
2022-11-16T16:44:42.243Z,18.00
2022-11-16T16:47:10.952Z,18.10
2022-11-16T16:49:39.201Z,18.60
2022-11-16T16:52:08.284Z,18.70
2022-11-16T16:54:36.255Z,18.70
2022-11-16T16:57:04.353Z,18.70
2022-11-16T16:59:33.711Z,18.70
2022-11-16T17:02:01.641Z,18.70
2022-11-16T17:04:29.771Z,18.40
2022-11-16T17:06:57.767Z,18.10
2022-11-16T17:09:25.729Z,18.30
2022-11-16T17:11:53.686Z,18.20
2022-11-16T17:14:24.475Z,17.80
2022-11-16T17:16:53.872Z,17.40
2022-11-16T17:19:21.960Z,17.40
2022-11-16T17:21:51.638Z,17.80
2022-11-16T17:24:19.954Z,18.00
2022-11-16T17:26:48.786Z,18.20
2022-11-16T17:29:16.861Z,18.00
2022-11-16T17:31:47.761Z,17.90
2022-11-16T17:34:19.860Z,17.90
2022-11-16T17:36:47.848Z,17.40
2022-11-16T17:39:15.889Z,17.40
2022-11-16T17:41:45.012Z,17.60
2022-11-16T17:44:17.190Z,17.70
2022-11-16T17:46:48.170Z,17.90
2022-11-16T17:49:17.457Z,17.60
2022-11-16T17:51:45.398Z,17.40
2022-11-16T17:54:13.328Z,16.90
2022-11-16T17:56:41.285Z,16.90
2022-11-16T17:59:09.242Z,17.00
2022-11-16T18:01:40.269Z,16.50
2022-11-16T18:04:10.577Z,16.30
2022-11-16T18:06:39.998Z,16.40
2022-11-16T18:09:07.965Z,16.50
2022-11-16T18:11:35.929Z,16.00
2022-11-16T18:14:05.488Z,15.90
2022-11-16T18:16:34.631Z,15.80
2022-11-16T18:19:04.469Z,16.00
2022-11-16T18:21:33.932Z,16.10
2022-11-16T18:24:03.258Z,16.30
2022-11-16T18:26:31.236Z,16.20
2022-11-16T18:28:59.461Z,16.40
2022-11-16T18:31:27.534Z,16.40
2022-11-16T18:33:55.555Z,16.80
2022-11-16T18:36:23.610Z,17.00
2022-11-16T18:38:52.038Z,17.00
2022-11-16T18:41:23.652Z,16.80
2022-11-16T18:43:53.769Z,16.10
2022-11-16T18:46:23.726Z,15.70
2022-11-16T18:48:52.047Z,15.70
2022-11-16T18:51:21.351Z,15.80
2022-11-16T18:53:49.658Z,15.20
2022-11-16T18:56:18.584Z,15.30
2022-11-16T18:58:50.818Z,15.30
2022-11-16T19:01:21.710Z,15.30
2022-11-16T19:03:49.818Z,15.50
2022-11-16T19:06:19.051Z,16.00
2022-11-16T19:08:54.953Z,16.00
2022-11-16T19:11:24.309Z,16.00
2022-11-16T19:14:00.563Z,15.70
2022-11-16T19:16:29.111Z,15.00
2022-11-16T19:18:57.220Z,15.00
2022-11-16T19:21:25.715Z,14.50
2022-11-16T19:23:58.072Z,14.80
2022-11-16T19:26:28.009Z,14.90
2022-11-16T19:28:59.422Z,14.50
2022-11-16T19:31:29.735Z,14.70
2022-11-16T19:34:02.212Z,14.70
2022-11-16T19:36:31.318Z,15.10
2022-11-16T19:39:00.398Z,15.50
2022-11-16T19:41:29.498Z,15.90
2022-11-16T19:44:01.671Z,15.60
2022-11-16T19:46:32.009Z,15.30
2022-11-16T19:49:01.063Z,15.50
2022-11-16T19:51:32.129Z,15.60
2022-11-16T19:54:03.722Z,15.70
2022-11-16T19:56:36.267Z,15.60
2022-11-16T19:59:07.981Z,15.80
2022-11-16T20:01:36.221Z,15.30
2022-11-16T20:04:06.791Z,15.10
2022-11-16T20:06:35.882Z,14.70
2022-11-16T20:09:08.647Z,14.60
2022-11-16T20:11:38.539Z,15.00
2022-11-16T20:14:13.618Z,15.30
2022-11-16T20:16:43.392Z,15.40
2022-11-16T20:19:12.020Z,15.50
2022-11-16T20:21:42.419Z,15.30
2022-11-16T20:24:15.159Z,15.30
2022-11-16T20:26:44.708Z,15.40
2022-11-16T20:29:17.374Z,15.60
2022-11-16T20:31:46.190Z,15.30
2022-11-16T20:34:19.140Z,15.20
2022-11-16T20:36:50.483Z,15.30
2022-11-16T20:39:21.595Z,15.20
2022-11-16T20:41:51.179Z,15.30
2022-11-16T20:44:22.135Z,14.90
2022-11-16T20:46:52.275Z,15.00
2022-11-16T20:49:20.654Z,14.90
2022-11-16T20:51:50.289Z,15.20
2022-11-16T20:54:18.459Z,14.70
2022-11-16T20:56:48.078Z,14.70
2022-11-16T20:59:17.112Z,14.90
2022-11-16T21:01:48.541Z,15.10
2022-11-16T21:04:17.260Z,15.20
2022-11-16T21:06:45.493Z,15.30
2022-11-16T21:09:15.469Z,15.50
2022-11-16T21:12:01.754Z,15.40
2022-11-16T21:14:29.746Z,15.20
2022-11-16T21:16:59.023Z,14.90
2022-11-16T21:19:27.226Z,15.50
2022-11-16T21:21:55.211Z,15.40
2022-11-16T21:24:24.700Z,15.40
2022-11-16T21:26:53.306Z,15.40
2022-11-16T21:29:25.757Z,15.50
2022-11-16T21:31:54.192Z,15.90
2022-11-16T21:34:24.409Z,15.80
2022-11-16T21:36:54.630Z,15.40
2022-11-16T21:39:22.846Z,15.20
2022-11-16T21:41:50.760Z,15.40
2022-11-16T21:44:18.693Z,15.20
2022-11-16T21:46:46.648Z,15.30
2022-11-16T21:49:14.629Z,15.40
2022-11-16T21:51:43.926Z,15.60
2022-11-16T21:54:11.898Z,15.40
2022-11-16T21:56:39.825Z,15.50
2022-11-16T21:59:07.730Z,15.50
2022-11-16T22:01:49.935Z,15.80
2022-11-16T22:04:35.474Z,16.00
2022-11-16T22:07:22.291Z,16.20
2022-11-16T22:09:50.266Z,15.50
2022-11-16T22:12:18.213Z,15.40
2022-11-16T22:14:46.186Z,15.60
2022-11-16T22:17:16.579Z,15.30
2022-11-16T22:19:44.505Z,15.20
2022-11-16T22:22:14.041Z,15.30
2022-11-16T22:24:42.276Z,15.60
2022-11-16T22:27:10.347Z,15.80
2022-11-16T22:29:38.341Z,16.00
2022-11-16T22:32:06.481Z,15.80
2022-11-16T22:34:34.434Z,15.90
2022-11-16T22:37:02.590Z,15.90
2022-11-16T22:39:31.886Z,16.00
2022-11-16T22:41:59.844Z,15.90
2022-11-16T22:44:27.761Z,15.70
2022-11-16T22:46:55.762Z,15.40
2022-11-16T22:49:24.787Z,15.30
2022-11-16T22:51:52.970Z,15.10
2022-11-16T22:54:25.870Z,15.30
2022-11-16T22:56:57.836Z,15.50
2022-11-16T22:59:25.789Z,15.70
2022-11-16T23:01:53.711Z,15.50
2022-11-16T23:04:21.654Z,15.50
2022-11-16T23:06:49.699Z,15.40
2022-11-16T23:09:17.694Z,15.40
2022-11-16T23:12:03.337Z,15.30
2022-11-16T23:14:50.089Z,14.90
2022-11-16T23:17:20.243Z,15.10
2022-11-16T23:20:20.098Z,15.10
2022-11-16T23:23:05.665Z,15.10
2022-11-16T23:25:51.559Z,15.10
2022-11-16T23:28:20.169Z,14.90
2022-11-16T23:30:49.428Z,15.20
2022-11-16T23:33:17.380Z,15.30
2022-11-16T23:35:45.375Z,15.20
2022-11-16T23:38:13.296Z,15.10
2022-11-16T23:40:41.472Z,15.10
2022-11-16T23:43:29.791Z,15.00
2022-11-16T23:45:59.097Z,15.10
2022-11-16T23:48:27.043Z,14.90
2022-11-16T23:50:57.324Z,15.00
2022-11-16T23:53:25.256Z,14.70
2022-11-16T23:55:53.205Z,14.40
2022-11-16T23:58:21.165Z,14.80
